sensor_id;sensor_type;location;lat;lon;timestamp;temperature;humidity
13585;DHT22;6863;48.402;9.994;2023-05-10T00:01:08;13.30;99.90
13585;DHT22;6863;48.402;9.994;2023-05-10T00:03:34;13.30;99.90
13585;DHT22;6863;48.402;9.994;2023-05-10T00:06:00;13.40;99.90
13585;DHT22;6863;48.402;9.994;2023-05-10T00:08:25;13.30;99.90
13585;DHT22;6863;48.402;9.994;2023-05-10T00:10:52;13.40;99.90
13585;DHT22;6863;48.402;9.994;2023-05-10T00:13:18;13.30;99.90
13585;DHT22;6863;48.402;9.994;2023-05-10T00:15:44;13.30;99.90
13585;DHT22;6863;48.402;9.994;2023-05-10T00:18:10;13.30;99.90
13585;DHT22;6863;48.402;9.994;2023-05-10T00:20:35;13.30;99.90
13585;DHT22;6863;48.402;9.994;2023-05-10T00:23:01;13.30;99.90
13585;DHT22;6863;48.402;9.994;2023-05-10T00:25:26;13.40;99.90
13585;DHT22;6863;48.402;9.994;2023-05-10T00:27:52;13.40;99.90
13585;DHT22;6863;48.402;9.994;2023-05-10T00:30:20;13.30;99.90
13585;DHT22;6863;48.402;9.994;2023-05-10T00:32:46;13.30;99.90
13585;DHT22;6863;48.402;9.994;2023-05-10T00:35:13;13.30;99.90
13585;DHT22;6863;48.402;9.994;2023-05-10T00:37:39;13.30;99.90
13585;DHT22;6863;48.402;9.994;2023-05-10T00:40:05;13.30;99.90
13585;DHT22;6863;48.402;9.994;2023-05-10T00:42:31;13.30;99.90
13585;DHT22;6863;48.402;9.994;2023-05-10T00:44:56;13.20;99.90
13585;DHT22;6863;48.402;9.994;2023-05-10T00:47:23;13.30;99.90
13585;DHT22;6863;48.402;9.994;2023-05-10T00:49:52;13.30;99.90
13585;DHT22;6863;48.402;9.994;2023-05-10T00:52:18;13.20;99.90
13585;DHT22;6863;48.402;9.994;2023-05-10T00:54:43;13.20;99.90
13585;DHT22;6863;48.402;9.994;2023-05-10T00:57:09;13.20;99.90
13585;DHT22;6863;48.402;9.994;2023-05-10T00:59:35;13.20;99.90
13585;DHT22;6863;48.402;9.994;2023-05-10T01:02:01;13.20;99.90
13585;DHT22;6863;48.402;9.994;2023-05-10T01:04:28;13.20;99.90
13585;DHT22;6863;48.402;9.994;2023-05-10T01:06:54;13.20;99.90
13585;DHT22;6863;48.402;9.994;2023-05-10T01:09:21;13.20;99.90
13585;DHT22;6863;48.402;9.994;2023-05-10T01:11:47;13.20;99.90
13585;DHT22;6863;48.402;9.994;2023-05-10T01:14:13;13.20;99.90
13585;DHT22;6863;48.402;9.994;2023-05-10T01:16:41;13.20;99.90
13585;DHT22;6863;48.402;9.994;2023-05-10T01:19:16;13.10;99.90
13585;DHT22;6863;48.402;9.994;2023-05-10T01:21:49;13.10;99.90
13585;DHT22;6863;48.402;9.994;2023-05-10T01:35:59;13.10;99.90
13585;DHT22;6863;48.402;9.994;2023-05-10T01:41:30;13.10;99.90
13585;DHT22;6863;48.402;9.994;2023-05-10T01:44:02;13.10;99.90
13585;DHT22;6863;48.402;9.994;2023-05-10T01:46:36;13.10;99.90
13585;DHT22;6863;48.402;9.994;2023-05-10T01:49:08;13.10;99.90
13585;DHT22;6863;48.402;9.994;2023-05-10T01:51:49;13.10;99.90
13585;DHT22;6863;48.402;9.994;2023-05-10T01:54:19;13.20;99.90
13585;DHT22;6863;48.402;9.994;2023-05-10T01:56:48;13.20;99.90
13585;DHT22;6863;48.402;9.994;2023-05-10T01:59:18;13.20;99.90
13585;DHT22;6863;48.402;9.994;2023-05-10T02:01:45;13.10;99.90
13585;DHT22;6863;48.402;9.994;2023-05-10T02:04:15;13.20;99.90
13585;DHT22;6863;48.402;9.994;2023-05-10T02:06:42;13.20;99.90
13585;DHT22;6863;48.402;9.994;2023-05-10T02:09:10;13.20;99.90
13585;DHT22;6863;48.402;9.994;2023-05-10T02:11:39;13.20;99.90
13585;DHT22;6863;48.402;9.994;2023-05-10T02:14:07;13.20;99.90
13585;DHT22;6863;48.402;9.994;2023-05-10T02:16:35;13.20;99.90
13585;DHT22;6863;48.402;9.994;2023-05-10T02:19:02;13.20;99.90
13585;DHT22;6863;48.402;9.994;2023-05-10T02:21:29;13.20;99.90
13585;DHT22;6863;48.402;9.994;2023-05-10T02:23:57;13.10;99.90
13585;DHT22;6863;48.402;9.994;2023-05-10T02:26:24;13.10;99.90
13585;DHT22;6863;48.402;9.994;2023-05-10T02:28:54;13.00;99.90
13585;DHT22;6863;48.402;9.994;2023-05-10T02:31:20;13.00;99.90
13585;DHT22;6863;48.402;9.994;2023-05-10T02:33:47;12.90;99.90
13585;DHT22;6863;48.402;9.994;2023-05-10T02:36:13;12.90;99.90
13585;DHT22;6863;48.402;9.994;2023-05-10T02:38:41;12.90;99.90
13585;DHT22;6863;48.402;9.994;2023-05-10T02:41:08;12.90;99.90
13585;DHT22;6863;48.402;9.994;2023-05-10T02:43:35;12.90;99.90
13585;DHT22;6863;48.402;9.994;2023-05-10T02:46:01;12.90;99.90
13585;DHT22;6863;48.402;9.994;2023-05-10T02:48:27;12.90;99.90
13585;DHT22;6863;48.402;9.994;2023-05-10T02:50:55;12.90;99.90
13585;DHT22;6863;48.402;9.994;2023-05-10T02:53:25;12.90;99.90
13585;DHT22;6863;48.402;9.994;2023-05-10T02:55:57;12.90;99.90
13585;DHT22;6863;48.402;9.994;2023-05-10T02:58:24;12.80;99.90
13585;DHT22;6863;48.402;9.994;2023-05-10T03:00:49;12.80;99.90
13585;DHT22;6863;48.402;9.994;2023-05-10T03:03:15;12.80;99.90
13585;DHT22;6863;48.402;9.994;2023-05-10T03:05:41;12.80;99.90
13585;DHT22;6863;48.402;9.994;2023-05-10T03:08:07;12.70;99.90
13585;DHT22;6863;48.402;9.994;2023-05-10T03:10:35;12.70;99.90
13585;DHT22;6863;48.402;9.994;2023-05-10T03:15:59;12.70;99.90
13585;DHT22;6863;48.402;9.994;2023-05-10T03:18:36;12.60;99.90
13585;DHT22;6863;48.402;9.994;2023-05-10T03:21:04;12.70;99.90
13585;DHT22;6863;48.402;9.994;2023-05-10T03:23:50;12.60;99.90
13585;DHT22;6863;48.402;9.994;2023-05-10T03:26:43;12.60;99.90
13585;DHT22;6863;48.402;9.994;2023-05-10T03:29:11;12.60;99.90
13585;DHT22;6863;48.402;9.994;2023-05-10T03:31:38;12.70;99.90
13585;DHT22;6863;48.402;9.994;2023-05-10T03:34:04;12.60;99.90
13585;DHT22;6863;48.402;9.994;2023-05-10T03:36:30;12.60;99.90
13585;DHT22;6863;48.402;9.994;2023-05-10T03:38:55;12.50;99.90
13585;DHT22;6863;48.402;9.994;2023-05-10T03:41:21;12.50;99.90
13585;DHT22;6863;48.402;9.994;2023-05-10T03:43:47;12.40;99.90
13585;DHT22;6863;48.402;9.994;2023-05-10T03:46:12;12.40;99.90
13585;DHT22;6863;48.402;9.994;2023-05-10T03:48:38;12.40;99.90
13585;DHT22;6863;48.402;9.994;2023-05-10T03:51:03;12.30;99.90
13585;DHT22;6863;48.402;9.994;2023-05-10T03:53:29;12.20;99.90
13585;DHT22;6863;48.402;9.994;2023-05-10T03:55:54;12.20;99.90
13585;DHT22;6863;48.402;9.994;2023-05-10T03:58:20;12.10;99.90
13585;DHT22;6863;48.402;9.994;2023-05-10T04:00:47;12.10;99.90
13585;DHT22;6863;48.402;9.994;2023-05-10T04:03:12;12.10;99.90
13585;DHT22;6863;48.402;9.994;2023-05-10T04:05:38;12.00;99.90
13585;DHT22;6863;48.402;9.994;2023-05-10T04:08:04;12.00;99.90
13585;DHT22;6863;48.402;9.994;2023-05-10T04:10:30;12.00;99.90
13585;DHT22;6863;48.402;9.994;2023-05-10T04:12:56;12.00;99.90
13585;DHT22;6863;48.402;9.994;2023-05-10T04:15:21;12.00;99.90
13585;DHT22;6863;48.402;9.994;2023-05-10T04:17:47;12.00;99.90
13585;DHT22;6863;48.402;9.994;2023-05-10T04:20:13;11.90;99.90
13585;DHT22;6863;48.402;9.994;2023-05-10T04:22:38;11.90;99.90
13585;DHT22;6863;48.402;9.994;2023-05-10T04:25:05;11.90;99.90
13585;DHT22;6863;48.402;9.994;2023-05-10T04:27:31;11.90;99.90
13585;DHT22;6863;48.402;9.994;2023-05-10T04:29:57;11.90;99.90
13585;DHT22;6863;48.402;9.994;2023-05-10T04:32:22;11.90;99.90
13585;DHT22;6863;48.402;9.994;2023-05-10T04:34:48;12.10;99.90
13585;DHT22;6863;48.402;9.994;2023-05-10T04:37:14;12.10;99.90
13585;DHT22;6863;48.402;9.994;2023-05-10T04:39:40;12.10;99.90
13585;DHT22;6863;48.402;9.994;2023-05-10T04:42:05;12.10;99.90
13585;DHT22;6863;48.402;9.994;2023-05-10T04:44:33;12.20;99.90
13585;DHT22;6863;48.402;9.994;2023-05-10T04:46:59;12.10;99.90
13585;DHT22;6863;48.402;9.994;2023-05-10T04:49:25;12.20;99.90
13585;DHT22;6863;48.402;9.994;2023-05-10T04:51:51;12.20;99.90
13585;DHT22;6863;48.402;9.994;2023-05-10T04:54:16;12.20;99.90
13585;DHT22;6863;48.402;9.994;2023-05-10T04:56:42;12.30;99.90
13585;DHT22;6863;48.402;9.994;2023-05-10T04:59:08;12.40;99.90
13585;DHT22;6863;48.402;9.994;2023-05-10T05:01:33;12.40;99.90
13585;DHT22;6863;48.402;9.994;2023-05-10T05:03:59;12.50;99.90
13585;DHT22;6863;48.402;9.994;2023-05-10T05:06:25;12.60;99.90
13585;DHT22;6863;48.402;9.994;2023-05-10T05:08:51;12.60;99.90
13585;DHT22;6863;48.402;9.994;2023-05-10T05:11:17;12.60;99.90
13585;DHT22;6863;48.402;9.994;2023-05-10T05:13:42;12.60;99.90
13585;DHT22;6863;48.402;9.994;2023-05-10T05:16:08;12.60;99.90
13585;DHT22;6863;48.402;9.994;2023-05-10T05:18:34;12.60;99.90
13585;DHT22;6863;48.402;9.994;2023-05-10T05:21:00;12.60;99.90
13585;DHT22;6863;48.402;9.994;2023-05-10T05:23:26;12.70;99.90
13585;DHT22;6863;48.402;9.994;2023-05-10T05:25:52;12.70;99.90
13585;DHT22;6863;48.402;9.994;2023-05-10T05:28:19;12.70;99.90
13585;DHT22;6863;48.402;9.994;2023-05-10T05:30:45;12.80;99.90
13585;DHT22;6863;48.402;9.994;2023-05-10T05:33:10;12.80;99.90
13585;DHT22;6863;48.402;9.994;2023-05-10T05:35:37;12.80;99.90
13585;DHT22;6863;48.402;9.994;2023-05-10T05:38:02;12.90;99.90
13585;DHT22;6863;48.402;9.994;2023-05-10T05:40:28;12.80;99.90
13585;DHT22;6863;48.402;9.994;2023-05-10T05:42:54;12.90;99.90
13585;DHT22;6863;48.402;9.994;2023-05-10T05:45:22;12.90;99.90
13585;DHT22;6863;48.402;9.994;2023-05-10T05:47:47;13.00;99.90
13585;DHT22;6863;48.402;9.994;2023-05-10T05:50:13;13.00;99.90
13585;DHT22;6863;48.402;9.994;2023-05-10T05:52:39;13.00;99.90
13585;DHT22;6863;48.402;9.994;2023-05-10T05:55:05;12.90;99.90
13585;DHT22;6863;48.402;9.994;2023-05-10T05:57:31;13.00;99.90
13585;DHT22;6863;48.402;9.994;2023-05-10T05:59:56;13.10;99.90
13585;DHT22;6863;48.402;9.994;2023-05-10T06:02:22;13.10;99.90
13585;DHT22;6863;48.402;9.994;2023-05-10T06:04:48;13.10;99.90
13585;DHT22;6863;48.402;9.994;2023-05-10T06:07:13;13.20;99.90
13585;DHT22;6863;48.402;9.994;2023-05-10T06:09:39;13.20;99.90
13585;DHT22;6863;48.402;9.994;2023-05-10T06:12:05;13.20;99.90
13585;DHT22;6863;48.402;9.994;2023-05-10T06:14:30;13.20;99.90
13585;DHT22;6863;48.402;9.994;2023-05-10T06:16:56;13.10;99.90
13585;DHT22;6863;48.402;9.994;2023-05-10T06:19:21;13.20;99.90
13585;DHT22;6863;48.402;9.994;2023-05-10T06:21:47;13.30;99.90
13585;DHT22;6863;48.402;9.994;2023-05-10T06:24:12;13.40;99.90
13585;DHT22;6863;48.402;9.994;2023-05-10T06:26:38;13.50;99.90
13585;DHT22;6863;48.402;9.994;2023-05-10T06:29:04;13.50;99.90
13585;DHT22;6863;48.402;9.994;2023-05-10T06:31:29;13.60;99.90
13585;DHT22;6863;48.402;9.994;2023-05-10T06:33:55;13.70;99.90
13585;DHT22;6863;48.402;9.994;2023-05-10T06:36:21;13.80;99.90
13585;DHT22;6863;48.402;9.994;2023-05-10T06:38:47;14.00;99.90
13585;DHT22;6863;48.402;9.994;2023-05-10T06:41:13;14.00;99.90
13585;DHT22;6863;48.402;9.994;2023-05-10T06:43:38;13.90;99.90
13585;DHT22;6863;48.402;9.994;2023-05-10T06:46:07;13.90;99.90
13585;DHT22;6863;48.402;9.994;2023-05-10T06:48:32;14.10;99.90
13585;DHT22;6863;48.402;9.994;2023-05-10T06:50:58;14.20;99.90
13585;DHT22;6863;48.402;9.994;2023-05-10T06:53:24;14.00;99.90
13585;DHT22;6863;48.402;9.994;2023-05-10T06:55:49;14.00;99.90
13585;DHT22;6863;48.402;9.994;2023-05-10T06:58:15;14.10;99.90
13585;DHT22;6863;48.402;9.994;2023-05-10T07:00:41;14.10;99.90
13585;DHT22;6863;48.402;9.994;2023-05-10T07:03:11;14.10;99.90
13585;DHT22;6863;48.402;9.994;2023-05-10T07:05:37;14.20;99.90
13585;DHT22;6863;48.402;9.994;2023-05-10T07:08:03;14.20;99.90
13585;DHT22;6863;48.402;9.994;2023-05-10T07:10:28;14.10;99.90
13585;DHT22;6863;48.402;9.994;2023-05-10T07:12:55;14.10;99.90
13585;DHT22;6863;48.402;9.994;2023-05-10T07:15:20;14.10;99.90
13585;DHT22;6863;48.402;9.994;2023-05-10T07:17:46;14.20;99.90
13585;DHT22;6863;48.402;9.994;2023-05-10T07:20:15;14.40;99.90
13585;DHT22;6863;48.402;9.994;2023-05-10T07:22:40;14.60;99.90
13585;DHT22;6863;48.402;9.994;2023-05-10T07:25:09;14.50;99.90
13585;DHT22;6863;48.402;9.994;2023-05-10T07:27:38;14.30;99.90
13585;DHT22;6863;48.402;9.994;2023-05-10T07:30:04;14.30;99.90
13585;DHT22;6863;48.402;9.994;2023-05-10T07:32:30;14.40;99.90
13585;DHT22;6863;48.402;9.994;2023-05-10T07:34:55;14.40;99.90
13585;DHT22;6863;48.402;9.994;2023-05-10T07:37:21;14.50;99.90
13585;DHT22;6863;48.402;9.994;2023-05-10T07:39:47;14.30;99.90
13585;DHT22;6863;48.402;9.994;2023-05-10T07:42:12;14.10;99.90
13585;DHT22;6863;48.402;9.994;2023-05-10T07:44:38;14.10;99.90
13585;DHT22;6863;48.402;9.994;2023-05-10T07:47:03;14.30;99.90
13585;DHT22;6863;48.402;9.994;2023-05-10T07:49:29;14.30;99.90
13585;DHT22;6863;48.402;9.994;2023-05-10T07:51:55;14.50;99.90
13585;DHT22;6863;48.402;9.994;2023-05-10T07:54:20;14.80;99.90
13585;DHT22;6863;48.402;9.994;2023-05-10T07:56:46;15.00;99.90
13585;DHT22;6863;48.402;9.994;2023-05-10T07:59:16;15.10;99.90
13585;DHT22;6863;48.402;9.994;2023-05-10T08:01:42;15.30;99.90
13585;DHT22;6863;48.402;9.994;2023-05-10T08:04:08;15.50;99.90
13585;DHT22;6863;48.402;9.994;2023-05-10T08:06:34;15.60;99.90
13585;DHT22;6863;48.402;9.994;2023-05-10T08:09:00;15.70;99.90
13585;DHT22;6863;48.402;9.994;2023-05-10T08:11:25;15.80;99.90
13585;DHT22;6863;48.402;9.994;2023-05-10T08:13:53;15.90;99.90
13585;DHT22;6863;48.402;9.994;2023-05-10T08:16:18;16.10;99.90
13585;DHT22;6863;48.402;9.994;2023-05-10T08:18:45;16.10;99.90
13585;DHT22;6863;48.402;9.994;2023-05-10T08:21:12;16.10;99.90
13585;DHT22;6863;48.402;9.994;2023-05-10T08:23:37;16.20;99.90
13585;DHT22;6863;48.402;9.994;2023-05-10T08:26:03;16.30;99.90
13585;DHT22;6863;48.402;9.994;2023-05-10T08:28:32;16.40;99.90
13585;DHT22;6863;48.402;9.994;2023-05-10T08:30:57;16.30;99.90
13585;DHT22;6863;48.402;9.994;2023-05-10T08:33:23;16.50;99.70
13585;DHT22;6863;48.402;9.994;2023-05-10T08:35:48;16.70;99.60
13585;DHT22;6863;48.402;9.994;2023-05-10T08:38:14;16.90;99.40
13585;DHT22;6863;48.402;9.994;2023-05-10T08:40:44;16.90;98.30
13585;DHT22;6863;48.402;9.994;2023-05-10T08:43:12;16.90;98.00
13585;DHT22;6863;48.402;9.994;2023-05-10T08:45:42;16.80;98.30
13585;DHT22;6863;48.402;9.994;2023-05-10T08:48:09;17.20;98.20
13585;DHT22;6863;48.402;9.994;2023-05-10T08:50:36;17.60;97.30
13585;DHT22;6863;48.402;9.994;2023-05-10T08:53:05;18.20;96.00
13585;DHT22;6863;48.402;9.994;2023-05-10T08:55:32;18.50;95.40
13585;DHT22;6863;48.402;9.994;2023-05-10T08:57:59;18.60;95.10
13585;DHT22;6863;48.402;9.994;2023-05-10T09:00:27;18.70;93.70
13585;DHT22;6863;48.402;9.994;2023-05-10T09:02:53;18.90;93.60
13585;DHT22;6863;48.402;9.994;2023-05-10T09:05:19;19.20;92.90
13585;DHT22;6863;48.402;9.994;2023-05-10T09:07:45;19.40;91.40
13585;DHT22;6863;48.402;9.994;2023-05-10T09:10:11;19.70;90.50
13585;DHT22;6863;48.402;9.994;2023-05-10T09:12:37;19.50;90.00
13585;DHT22;6863;48.402;9.994;2023-05-10T09:15:04;19.50;89.40
13585;DHT22;6863;48.402;9.994;2023-05-10T09:17:31;18.90;89.00
13585;DHT22;6863;48.402;9.994;2023-05-10T09:20:01;18.60;90.50
13585;DHT22;6863;48.402;9.994;2023-05-10T09:22:27;18.30;90.80
13585;DHT22;6863;48.402;9.994;2023-05-10T09:25:14;18.20;91.30
13585;DHT22;6863;48.402;9.994;2023-05-10T09:27:41;18.50;90.90
13585;DHT22;6863;48.402;9.994;2023-05-10T09:30:07;18.70;89.90
13585;DHT22;6863;48.402;9.994;2023-05-10T09:32:43;18.80;88.00
13585;DHT22;6863;48.402;9.994;2023-05-10T09:35:11;19.00;87.60
13585;DHT22;6863;48.402;9.994;2023-05-10T09:37:38;18.80;87.70
13585;DHT22;6863;48.402;9.994;2023-05-10T09:40:11;18.60;88.20
13585;DHT22;6863;48.402;9.994;2023-05-10T09:42:37;18.40;89.30
13585;DHT22;6863;48.402;9.994;2023-05-10T09:45:04;18.30;89.10
13585;DHT22;6863;48.402;9.994;2023-05-10T09:47:35;18.30;89.00
13585;DHT22;6863;48.402;9.994;2023-05-10T09:50:02;18.60;87.90
13585;DHT22;6863;48.402;9.994;2023-05-10T09:52:29;18.70;87.00
13585;DHT22;6863;48.402;9.994;2023-05-10T09:54:55;18.90;86.50
13585;DHT22;6863;48.402;9.994;2023-05-10T09:57:22;18.60;86.30
13585;DHT22;6863;48.402;9.994;2023-05-10T09:59:48;18.40;87.00
13585;DHT22;6863;48.402;9.994;2023-05-10T10:02:14;18.40;88.00
13585;DHT22;6863;48.402;9.994;2023-05-10T10:04:41;18.50;87.10
13585;DHT22;6863;48.402;9.994;2023-05-10T10:07:07;18.60;87.20
13585;DHT22;6863;48.402;9.994;2023-05-10T10:09:33;18.70;87.80
13585;DHT22;6863;48.402;9.994;2023-05-10T10:12:03;19.10;85.30
13585;DHT22;6863;48.402;9.994;2023-05-10T10:14:29;18.90;84.40
13585;DHT22;6863;48.402;9.994;2023-05-10T10:16:55;19.00;84.60
13585;DHT22;6863;48.402;9.994;2023-05-10T10:19:21;19.20;84.70
13585;DHT22;6863;48.402;9.994;2023-05-10T10:21:50;20.00;83.30
13585;DHT22;6863;48.402;9.994;2023-05-10T10:24:16;20.50;80.00
13585;DHT22;6863;48.402;9.994;2023-05-10T10:26:42;20.50;76.10
13585;DHT22;6863;48.402;9.994;2023-05-10T10:35:03;20.70;76.60
13585;DHT22;6863;48.402;9.994;2023-05-10T10:37:46;20.60;77.90
13585;DHT22;6863;48.402;9.994;2023-05-10T10:40:28;20.90;77.60
13585;DHT22;6863;48.402;9.994;2023-05-10T10:42:55;21.30;75.40
13585;DHT22;6863;48.402;9.994;2023-05-10T10:45:22;22.00;73.90
13585;DHT22;6863;48.402;9.994;2023-05-10T10:47:48;22.30;72.80
13585;DHT22;6863;48.402;9.994;2023-05-10T10:50:14;22.30;70.50
13585;DHT22;6863;48.402;9.994;2023-05-10T10:52:46;22.10;71.60
13585;DHT22;6863;48.402;9.994;2023-05-10T10:57:56;22.20;70.00
13585;DHT22;6863;48.402;9.994;2023-05-10T11:00:33;21.80;69.70
13585;DHT22;6863;48.402;9.994;2023-05-10T11:03:06;20.80;72.20
13585;DHT22;6863;48.402;9.994;2023-05-10T11:08:26;20.00;73.90
13585;DHT22;6863;48.402;9.994;2023-05-10T11:13:37;19.60;75.80
13585;DHT22;6863;48.402;9.994;2023-05-10T11:16:18;19.20;76.30
13585;DHT22;6863;48.402;9.994;2023-05-10T11:19:00;19.00;77.70
13585;DHT22;6863;48.402;9.994;2023-05-10T11:21:28;18.90;78.00
13585;DHT22;6863;48.402;9.994;2023-05-10T11:23:55;18.80;79.10
13585;DHT22;6863;48.402;9.994;2023-05-10T11:26:29;18.70;80.20
13585;DHT22;6863;48.402;9.994;2023-05-10T11:28:55;18.70;80.70
13585;DHT22;6863;48.402;9.994;2023-05-10T11:31:21;19.00;81.80
13585;DHT22;6863;48.402;9.994;2023-05-10T11:33:55;19.40;80.70
13585;DHT22;6863;48.402;9.994;2023-05-10T11:36:27;19.90;79.90
13585;DHT22;6863;48.402;9.994;2023-05-10T11:38:54;20.20;76.40
13585;DHT22;6863;48.402;9.994;2023-05-10T11:41:21;20.20;77.50
13585;DHT22;6863;48.402;9.994;2023-05-10T11:43:49;20.40;77.00
13585;DHT22;6863;48.402;9.994;2023-05-10T11:46:19;20.70;75.10
13585;DHT22;6863;48.402;9.994;2023-05-10T11:48:49;20.90;74.20
13585;DHT22;6863;48.402;9.994;2023-05-10T11:51:19;20.60;75.40
13585;DHT22;6863;48.402;9.994;2023-05-10T11:53:44;20.30;77.30
13585;DHT22;6863;48.402;9.994;2023-05-10T11:56:11;20.00;78.60
13585;DHT22;6863;48.402;9.994;2023-05-10T11:58:39;19.80;76.70
13585;DHT22;6863;48.402;9.994;2023-05-10T12:01:07;19.40;80.00
13585;DHT22;6863;48.402;9.994;2023-05-10T12:03:33;18.50;85.00
13585;DHT22;6863;48.402;9.994;2023-05-10T12:06:00;17.40;90.00
13585;DHT22;6863;48.402;9.994;2023-05-10T12:08:28;16.70;92.40
13585;DHT22;6863;48.402;9.994;2023-05-10T12:11:04;16.40;94.70
13585;DHT22;6863;48.402;9.994;2023-05-10T12:13:30;16.20;95.40
13585;DHT22;6863;48.402;9.994;2023-05-10T12:15:59;15.80;95.80
13585;DHT22;6863;48.402;9.994;2023-05-10T12:18:39;15.70;95.20
13585;DHT22;6863;48.402;9.994;2023-05-10T12:21:05;15.50;95.20
13585;DHT22;6863;48.402;9.994;2023-05-10T12:23:31;15.50;94.70
13585;DHT22;6863;48.402;9.994;2023-05-10T12:26:02;15.50;94.50
13585;DHT22;6863;48.402;9.994;2023-05-10T12:28:33;15.40;94.70
13585;DHT22;6863;48.402;9.994;2023-05-10T12:31:02;15.40;95.30
13585;DHT22;6863;48.402;9.994;2023-05-10T12:33:44;15.50;95.70
13585;DHT22;6863;48.402;9.994;2023-05-10T12:36:14;15.50;95.60
13585;DHT22;6863;48.402;9.994;2023-05-10T12:38:41;15.70;96.20
13585;DHT22;6863;48.402;9.994;2023-05-10T12:41:13;15.80;96.60
13585;DHT22;6863;48.402;9.994;2023-05-10T12:43:39;15.60;97.50
13585;DHT22;6863;48.402;9.994;2023-05-10T12:46:10;15.40;97.10
13585;DHT22;6863;48.402;9.994;2023-05-10T12:48:37;15.30;97.90
13585;DHT22;6863;48.402;9.994;2023-05-10T12:51:04;15.20;98.80
13585;DHT22;6863;48.402;9.994;2023-05-10T12:53:30;15.00;99.90
13585;DHT22;6863;48.402;9.994;2023-05-10T12:55:56;15.10;99.90
13585;DHT22;6863;48.402;9.994;2023-05-10T12:58:22;15.10;99.90
13585;DHT22;6863;48.402;9.994;2023-05-10T13:00:48;15.20;99.90
13585;DHT22;6863;48.402;9.994;2023-05-10T13:03:13;15.40;99.90
13585;DHT22;6863;48.402;9.994;2023-05-10T13:05:40;15.50;99.30
13585;DHT22;6863;48.402;9.994;2023-05-10T13:08:06;15.70;99.00
13585;DHT22;6863;48.402;9.994;2023-05-10T13:10:32;15.80;99.80
13585;DHT22;6863;48.402;9.994;2023-05-10T13:12:58;15.90;99.70
13585;DHT22;6863;48.402;9.994;2023-05-10T13:15:24;15.90;99.80
13585;DHT22;6863;48.402;9.994;2023-05-10T13:17:50;15.60;99.90
13585;DHT22;6863;48.402;9.994;2023-05-10T13:20:16;15.10;99.00
13585;DHT22;6863;48.402;9.994;2023-05-10T13:22:43;14.60;99.90
13585;DHT22;6863;48.402;9.994;2023-05-10T13:25:09;14.40;99.90
13585;DHT22;6863;48.402;9.994;2023-05-10T13:27:36;14.30;99.90
13585;DHT22;6863;48.402;9.994;2023-05-10T13:30:02;14.30;99.90
13585;DHT22;6863;48.402;9.994;2023-05-10T13:32:28;14.30;99.90
13585;DHT22;6863;48.402;9.994;2023-05-10T13:34:55;14.30;99.90
13585;DHT22;6863;48.402;9.994;2023-05-10T13:37:20;14.30;99.90
13585;DHT22;6863;48.402;9.994;2023-05-10T13:39:46;14.20;99.90
13585;DHT22;6863;48.402;9.994;2023-05-10T13:42:12;14.40;99.90
13585;DHT22;6863;48.402;9.994;2023-05-10T13:44:37;14.40;99.90
13585;DHT22;6863;48.402;9.994;2023-05-10T13:47:04;14.50;99.90
13585;DHT22;6863;48.402;9.994;2023-05-10T13:49:32;14.40;99.90
13585;DHT22;6863;48.402;9.994;2023-05-10T13:51:59;14.10;99.90
13585;DHT22;6863;48.402;9.994;2023-05-10T13:54:26;13.90;99.90
13585;DHT22;6863;48.402;9.994;2023-05-10T13:56:54;13.90;99.90
13585;DHT22;6863;48.402;9.994;2023-05-10T13:59:20;13.80;99.90
13585;DHT22;6863;48.402;9.994;2023-05-10T14:01:45;13.70;99.90
13585;DHT22;6863;48.402;9.994;2023-05-10T14:04:11;13.70;99.90
13585;DHT22;6863;48.402;9.994;2023-05-10T14:06:37;13.80;99.90
13585;DHT22;6863;48.402;9.994;2023-05-10T14:09:03;13.90;99.90
13585;DHT22;6863;48.402;9.994;2023-05-10T14:11:28;14.10;99.90
13585;DHT22;6863;48.402;9.994;2023-05-10T14:13:54;14.20;99.90
13585;DHT22;6863;48.402;9.994;2023-05-10T14:16:20;14.40;99.90
13585;DHT22;6863;48.402;9.994;2023-05-10T14:18:46;14.40;99.90
13585;DHT22;6863;48.402;9.994;2023-05-10T14:21:12;14.40;99.90
13585;DHT22;6863;48.402;9.994;2023-05-10T14:23:38;14.50;99.90
13585;DHT22;6863;48.402;9.994;2023-05-10T14:26:03;14.50;99.90
13585;DHT22;6863;48.402;9.994;2023-05-10T14:28:29;14.60;99.90
13585;DHT22;6863;48.402;9.994;2023-05-10T14:30:55;14.70;99.90
13585;DHT22;6863;48.402;9.994;2023-05-10T14:33:20;14.60;99.90
13585;DHT22;6863;48.402;9.994;2023-05-10T14:35:46;14.60;99.90
13585;DHT22;6863;48.402;9.994;2023-05-10T14:38:13;14.50;99.90
13585;DHT22;6863;48.402;9.994;2023-05-10T14:40:39;14.40;99.90
13585;DHT22;6863;48.402;9.994;2023-05-10T14:43:04;14.40;99.90
13585;DHT22;6863;48.402;9.994;2023-05-10T14:45:30;14.50;99.90
13585;DHT22;6863;48.402;9.994;2023-05-10T14:47:56;14.40;99.90
13585;DHT22;6863;48.402;9.994;2023-05-10T14:50:22;14.20;99.90
13585;DHT22;6863;48.402;9.994;2023-05-10T14:52:48;14.00;99.90
13585;DHT22;6863;48.402;9.994;2023-05-10T14:55:14;14.00;99.90
13585;DHT22;6863;48.402;9.994;2023-05-10T14:57:40;14.10;99.90
13585;DHT22;6863;48.402;9.994;2023-05-10T15:00:06;14.10;99.90
13585;DHT22;6863;48.402;9.994;2023-05-10T15:02:32;14.20;99.90
13585;DHT22;6863;48.402;9.994;2023-05-10T15:04:58;14.30;99.90
13585;DHT22;6863;48.402;9.994;2023-05-10T15:07:23;14.60;99.90
13585;DHT22;6863;48.402;9.994;2023-05-10T15:09:50;14.70;99.90
13585;DHT22;6863;48.402;9.994;2023-05-10T15:12:17;15.00;99.90
13585;DHT22;6863;48.402;9.994;2023-05-10T15:14:43;15.00;99.90
13585;DHT22;6863;48.402;9.994;2023-05-10T15:17:08;15.10;99.90
13585;DHT22;6863;48.402;9.994;2023-05-10T15:19:34;15.10;99.90
13585;DHT22;6863;48.402;9.994;2023-05-10T15:21:59;15.40;99.90
13585;DHT22;6863;48.402;9.994;2023-05-10T15:24:25;15.50;99.90
13585;DHT22;6863;48.402;9.994;2023-05-10T15:26:51;15.40;99.90
13585;DHT22;6863;48.402;9.994;2023-05-10T15:29:16;15.40;99.90
13585;DHT22;6863;48.402;9.994;2023-05-10T15:31:48;15.40;99.90
13585;DHT22;6863;48.402;9.994;2023-05-10T15:34:14;15.30;99.90
13585;DHT22;6863;48.402;9.994;2023-05-10T15:36:40;15.20;99.90
13585;DHT22;6863;48.402;9.994;2023-05-10T15:39:06;15.20;99.90
13585;DHT22;6863;48.402;9.994;2023-05-10T15:41:31;14.90;99.90
13585;DHT22;6863;48.402;9.994;2023-05-10T15:43:57;14.50;99.90
13585;DHT22;6863;48.402;9.994;2023-05-10T15:46:25;14.40;99.90
13585;DHT22;6863;48.402;9.994;2023-05-10T15:48:51;14.20;99.90
13585;DHT22;6863;48.402;9.994;2023-05-10T15:51:16;14.20;99.90
13585;DHT22;6863;48.402;9.994;2023-05-10T15:53:44;14.10;99.90
13585;DHT22;6863;48.402;9.994;2023-05-10T15:56:10;14.20;99.90
13585;DHT22;6863;48.402;9.994;2023-05-10T15:58:35;14.00;99.90
13585;DHT22;6863;48.402;9.994;2023-05-10T16:01:01;14.20;99.90
13585;DHT22;6863;48.402;9.994;2023-05-10T16:03:28;14.20;99.90
13585;DHT22;6863;48.402;9.994;2023-05-10T16:05:55;14.30;99.90
13585;DHT22;6863;48.402;9.994;2023-05-10T16:08:20;14.30;99.90
13585;DHT22;6863;48.402;9.994;2023-05-10T16:10:46;14.30;99.90
13585;DHT22;6863;48.402;9.994;2023-05-10T16:13:11;14.20;99.90
13585;DHT22;6863;48.402;9.994;2023-05-10T16:15:39;14.30;99.90